createdAt,value
2022-11-28T00:00:24.993Z,13.77
2022-11-28T00:05:31.426Z,12.15
2022-11-28T00:10:35.239Z,10.80
2022-11-28T00:15:37.812Z,12.32
2022-11-28T00:20:49.545Z,10.48
2022-11-28T00:26:04.103Z,8.88
2022-11-28T00:31:13.794Z,7.82
2022-11-28T00:36:24.051Z,7.60
2022-11-28T00:41:36.965Z,8.05
2022-11-28T00:46:49.633Z,7.75
2022-11-28T00:51:54.286Z,7.45
2022-11-28T00:56:58.965Z,7.32
2022-11-28T01:02:03.848Z,6.40
2022-11-28T01:07:13.030Z,5.60
2022-11-28T01:12:16.101Z,5.97
2022-11-28T01:17:19.342Z,5.70
2022-11-28T01:22:25.470Z,5.82
2022-11-28T01:27:32.760Z,6.55
2022-11-28T01:32:36.159Z,5.55
2022-11-28T01:37:43.461Z,6.30
2022-11-28T01:42:46.818Z,5.57
2022-11-28T01:47:56.729Z,5.50
2022-11-28T01:53:09.374Z,5.80
2022-11-28T01:58:17.554Z,5.72
2022-11-28T02:05:24.582Z,5.03
2022-11-28T02:10:57.327Z,5.10
2022-11-28T02:16:52.899Z,5.32
2022-11-28T02:22:05.526Z,6.57
2022-11-28T02:27:48.085Z,6.93
2022-11-28T02:33:19.824Z,6.78
2022-11-28T02:38:51.005Z,5.90
2022-11-28T02:44:12.461Z,6.05
2022-11-28T02:49:44.425Z,5.78
2022-11-28T02:54:52.516Z,6.93
2022-11-28T03:05:36.202Z,5.95
2022-11-28T03:11:01.250Z,5.93
2022-11-28T03:16:40.207Z,4.97
2022-11-28T03:22:26.125Z,5.47
2022-11-28T03:27:54.781Z,5.20
2022-11-28T03:33:01.914Z,3.88
2022-11-28T03:38:18.982Z,3.80
2022-11-28T03:43:40.215Z,4.03
2022-11-28T03:49:13.255Z,5.00
2022-11-28T03:54:36.136Z,4.65
2022-11-28T03:59:52.151Z,4.80
2022-11-28T04:05:17.788Z,4.82
2022-11-28T04:10:49.144Z,4.13
2022-11-28T04:16:16.506Z,4.10
2022-11-28T04:21:40.996Z,3.80
2022-11-28T04:26:51.129Z,3.28
2022-11-28T04:31:59.834Z,3.88
2022-11-28T04:37:09.810Z,3.58
2022-11-28T04:42:29.541Z,3.50
2022-11-28T04:47:38.614Z,3.25
2022-11-28T04:53:00.875Z,3.35
2022-11-28T04:58:23.042Z,3.20
2022-11-28T05:03:41.174Z,3.47
2022-11-28T05:08:54.179Z,2.97
2022-11-28T05:13:58.481Z,3.15
2022-11-28T05:19:04.296Z,3.20
2022-11-28T05:29:25.797Z,2.78
2022-11-28T05:34:36.029Z,3.45
2022-11-28T05:39:42.069Z,3.15
2022-11-28T05:44:44.505Z,3.45
2022-11-28T05:49:50.461Z,2.72
2022-11-28T05:55:05.603Z,3.63
2022-11-28T06:00:14.110Z,3.08
2022-11-28T06:05:41.782Z,3.30
2022-11-28T06:11:02.599Z,3.20
2022-11-28T06:16:13.711Z,3.67
2022-11-28T06:21:21.129Z,3.75
2022-11-28T06:26:33.701Z,4.03
2022-11-28T06:31:41.370Z,3.95
2022-11-28T06:36:47.611Z,3.55
2022-11-28T06:41:49.898Z,3.80
2022-11-28T06:46:56.007Z,4.05
2022-11-28T06:52:02.042Z,4.20
2022-11-28T06:57:06.081Z,4.47
2022-11-28T07:02:17.185Z,4.47
2022-11-28T07:07:23.687Z,4.05
2022-11-28T07:12:42.069Z,4.20
2022-11-28T07:22:58.899Z,3.45
2022-11-28T07:28:07.511Z,4.13
2022-11-28T07:33:11.357Z,4.65
2022-11-28T07:38:14.221Z,4.30
2022-11-28T07:43:17.222Z,5.18
2022-11-28T07:48:22.532Z,4.18
2022-11-28T07:53:28.096Z,5.03
2022-11-28T07:58:33.313Z,4.93
2022-11-28T08:03:47.316Z,4.65
2022-11-28T08:08:55.867Z,4.63
2022-11-28T08:14:00.524Z,4.47
2022-11-28T08:19:05.844Z,6.57
2022-11-28T08:24:12.932Z,5.75
2022-11-28T08:29:20.223Z,5.97
2022-11-28T08:34:38.421Z,5.65
2022-11-28T08:39:45.621Z,5.78
2022-11-28T08:44:49.112Z,5.60
2022-11-28T08:49:55.134Z,4.68
2022-11-28T08:54:58.685Z,4.68
2022-11-28T09:00:06.226Z,4.50
2022-11-28T09:05:13.017Z,3.58
2022-11-28T09:10:21.036Z,4.32
2022-11-28T09:15:29.319Z,3.20
2022-11-28T09:20:42.353Z,4.20
2022-11-28T09:31:17.798Z,4.03
2022-11-28T09:36:29.004Z,3.60
2022-11-28T09:42:26.986Z,3.45
2022-11-28T09:47:41.060Z,3.95
2022-11-28T09:53:12.181Z,3.67
2022-11-28T09:58:51.476Z,2.85
2022-11-28T10:04:12.982Z,3.10
2022-11-28T10:09:47.333Z,2.80
2022-11-28T10:20:30.900Z,2.80
2022-11-28T10:25:56.346Z,3.10
2022-11-28T10:31:19.687Z,2.08
2022-11-28T10:37:05.310Z,2.92
2022-11-28T10:42:27.685Z,2.33
2022-11-28T10:48:37.574Z,2.40
2022-11-28T10:54:11.942Z,2.03
2022-11-28T10:59:27.024Z,1.85
2022-11-28T11:04:33.985Z,2.20
2022-11-28T11:15:00.623Z,1.90
2022-11-28T11:20:05.070Z,2.00
2022-11-28T11:25:17.689Z,2.08
2022-11-28T11:30:34.401Z,2.70
2022-11-28T11:35:50.161Z,2.30
2022-11-28T11:40:57.345Z,2.22
2022-11-28T11:46:13.616Z,2.20
2022-11-28T11:51:42.383Z,2.47
2022-11-28T11:57:05.794Z,2.55
2022-11-28T12:02:46.325Z,2.97
2022-11-28T12:08:02.640Z,2.70
2022-11-28T12:13:06.337Z,3.03
2022-11-28T12:18:39.308Z,2.67
2022-11-28T12:24:11.560Z,2.05
2022-11-28T12:29:47.319Z,2.47
2022-11-28T12:35:33.375Z,2.40
2022-11-28T12:41:03.868Z,2.00
2022-11-28T12:46:12.159Z,2.50
2022-11-28T12:51:44.188Z,2.40
2022-11-28T12:57:06.278Z,2.50
2022-11-28T13:02:37.032Z,2.63
2022-11-28T13:08:14.125Z,1.92
2022-11-28T13:13:36.387Z,2.10
2022-11-28T13:19:16.056Z,2.05
2022-11-28T13:24:32.307Z,2.28
2022-11-28T13:30:04.229Z,2.05
2022-11-28T13:35:23.831Z,2.10
2022-11-28T13:41:28.756Z,1.95
2022-11-28T13:46:40.359Z,1.98
2022-11-28T13:52:32.434Z,2.33
2022-11-28T13:57:43.149Z,1.98
2022-11-28T14:03:00.397Z,2.30
2022-11-28T14:08:08.041Z,1.90
2022-11-28T14:13:33.428Z,1.73
2022-11-28T14:24:37.791Z,1.65
2022-11-28T14:29:46.104Z,6.55
2022-11-28T14:34:50.353Z,2.33
2022-11-28T14:39:58.339Z,1.83
2022-11-28T14:45:42.580Z,1.17
2022-11-28T14:50:49.285Z,1.52
2022-11-28T14:56:14.314Z,1.58
2022-11-28T15:08:16.263Z,1.35
2022-11-28T15:14:10.948Z,1.50
2022-11-28T15:19:48.868Z,1.30
2022-11-28T15:24:55.720Z,1.20
2022-11-28T15:30:09.778Z,2.17
2022-11-28T15:40:38.258Z,1.20
2022-11-28T15:50:56.127Z,1.15
2022-11-28T15:56:19.011Z,1.20
2022-11-28T16:06:46.926Z,1.40
2022-11-28T16:12:28.142Z,1.30
2022-11-28T16:17:38.196Z,2.33
2022-11-28T16:28:37.770Z,1.60
2022-11-28T16:33:58.877Z,1.70
2022-11-28T16:39:20.637Z,1.60
2022-11-28T16:44:38.850Z,1.48
2022-11-28T16:50:25.621Z,1.75
2022-11-28T16:55:40.076Z,1.92
2022-11-28T17:01:04.842Z,1.80
2022-11-28T17:06:30.214Z,1.73
2022-11-28T17:11:50.254Z,1.40
2022-11-28T17:17:05.184Z,1.60
2022-11-28T17:22:46.304Z,1.77
2022-11-28T17:28:01.785Z,1.40
2022-11-28T17:33:05.404Z,1.50
2022-11-28T17:38:13.443Z,1.92
2022-11-28T17:43:22.303Z,2.47
2022-11-28T17:48:30.227Z,2.55
2022-11-28T17:53:35.807Z,2.88
2022-11-28T17:58:41.840Z,3.63
2022-11-28T18:03:48.375Z,3.28
2022-11-28T18:08:53.618Z,4.25
2022-11-28T18:14:03.688Z,4.78
2022-11-28T18:19:08.867Z,4.68
2022-11-28T18:24:14.616Z,5.82
2022-11-28T18:29:22.015Z,5.78
2022-11-28T18:34:28.321Z,5.47
2022-11-28T18:39:35.375Z,6.22
2022-11-28T18:44:48.634Z,4.18
2022-11-28T18:49:51.450Z,3.55
2022-11-28T18:55:06.557Z,2.70
2022-11-28T19:00:12.493Z,2.30
2022-11-28T19:05:16.217Z,1.95
2022-11-28T19:10:31.520Z,2.67
2022-11-28T19:21:00.244Z,2.73
2022-11-28T19:26:11.793Z,3.28
2022-11-28T19:31:17.845Z,3.00
2022-11-28T19:36:21.185Z,2.85
2022-11-28T19:41:31.051Z,3.25
2022-11-28T19:46:36.438Z,3.33
2022-11-28T19:51:41.232Z,2.72
2022-11-28T19:56:49.420Z,2.38
2022-11-28T20:01:57.666Z,2.50
2022-11-28T20:07:00.401Z,2.20
2022-11-28T20:12:02.833Z,3.00
2022-11-28T20:17:11.149Z,2.30
2022-11-28T20:22:17.079Z,3.25
2022-11-28T20:27:27.861Z,2.88
2022-11-28T20:32:39.422Z,2.30
2022-11-28T20:37:46.152Z,2.13
2022-11-28T20:48:24.016Z,14.85
2022-11-28T20:53:31.869Z,7.80
2022-11-28T20:58:43.320Z,3.85
2022-11-28T21:03:48.509Z,2.60
2022-11-28T21:08:54.509Z,2.00
2022-11-28T21:13:57.689Z,1.75
2022-11-28T21:19:10.492Z,2.00
2022-11-28T21:24:16.622Z,2.25
2022-11-28T21:29:23.743Z,2.08
2022-11-28T21:34:28.867Z,1.80
2022-11-28T21:39:34.616Z,1.88
2022-11-28T21:45:13.282Z,1.92
2022-11-28T21:50:29.566Z,1.90
2022-11-28T21:55:35.645Z,1.75
2022-11-28T22:00:54.028Z,1.80
2022-11-28T22:06:38.811Z,1.58
2022-11-28T22:11:43.212Z,1.63
2022-11-28T22:16:46.698Z,2.17
2022-11-28T22:21:58.744Z,2.13
2022-11-28T22:27:05.834Z,2.30
2022-11-28T22:32:13.330Z,2.10
2022-11-28T22:37:23.083Z,1.83
2022-11-28T22:42:27.427Z,1.80
2022-11-28T22:47:32.822Z,2.65
2022-11-28T22:52:37.898Z,1.92
2022-11-28T22:57:51.175Z,2.13
2022-11-28T23:02:56.261Z,1.80
2022-11-28T23:13:31.442Z,1.60
2022-11-28T23:18:37.668Z,1.80
2022-11-28T23:36:28.110Z,2.17
2022-11-28T23:41:39.253Z,1.90
2022-11-28T23:47:11.256Z,2.10
2022-11-28T23:52:14.532Z,2.05
2022-11-28T23:57:22.024Z,2.15
